Time;durP1;ratioP1;P1;durP2;ratioP2;P2;SDS_P1;SDS_P2;PMS_P1;PMS_P2;Temp;Humidity;BMP_temperature;BMP_pressure;BME280_temperature;BME280_humidity;BME280_pressure;Samples;Min_cycle;Max_cycle;Signal;HPM_P1;HPM_P2
2021/10/18 00:02:16;;;;;;;30.20;3.65;;;;;;;;;;5070470;28;20020;-59
2021/10/18 00:04:43;;;;;;;42.67;4.47;;;;;;;;;;5066191;28;20674;-51
2021/10/18 00:07:11;;;;;;;33.42;3.63;;;;;;;;;;5056650;28;20025;-51
2021/10/18 00:09:38;;;;;;;29.35;3.50;;;;;;;;;;5060800;28;20115;-55
2021/10/18 00:12:05;;;;;;;31.17;3.65;;;;;;;;;;5060960;28;20021;-53
2021/10/18 00:14:32;;;;;;;33.33;3.95;;;;;;;;;;5056382;28;20048;-53
2021/10/18 00:17:00;;;;;;;29.05;3.80;;;;;;;;;;5062858;28;20056;-54
2021/10/18 00:19:27;;;;;;;39.50;3.58;;;;;;;;;;5066192;28;20032;-52
2021/10/18 00:21:54;;;;;;;28.00;3.58;;;;;;;;;;5065267;28;20052;-53
2021/10/18 00:24:21;;;;;;;35.33;4.32;;;;;;;;;;5067636;28;20021;-53
2021/10/18 00:26:48;;;;;;;27.73;3.75;;;;;;;;;;5064689;28;20028;-53
2021/10/18 00:29:15;;;;;;;32.63;4.28;;;;;;;;;;5071496;28;20032;-55
2021/10/18 00:31:42;;;;;;;22.73;4.00;;;;;;;;;;5066125;28;20380;-53
2021/10/18 00:34:09;;;;;;;47.70;5.45;;;;;;;;;;5072989;28;20085;-54
2021/10/18 00:39:12;;;;;;;38.63;5.07;;;;;;;;;;5039062;22;20536;-48
2021/10/18 00:41:39;;;;;;;44.33;5.88;;;;;;;;;;5016985;28;20022;-47
2021/10/18 00:44:06;;;;;;;38.42;5.70;;;;;;;;;;5019514;28;20028;-50
2021/10/18 00:46:34;;;;;;;43.92;6.18;;;;;;;;;;5021489;28;20080;-53
2021/10/18 00:49:01;;;;;;;28.58;4.85;;;;;;;;;;5015979;28;20435;-54
2021/10/18 00:51:29;;;;;;;46.05;5.60;;;;;;;;;;5030322;28;20029;-53
2021/10/18 00:53:58;;;;;;;32.03;5.35;;;;;;;;;;5020421;28;20485;-50
2021/10/18 00:56:25;;;;;;;45.85;5.65;;;;;;;;;;5020402;28;20495;-52
2021/10/18 00:58:52;;;;;;;46.80;6.43;;;;;;;;;;5021570;28;20030;-50
2021/10/18 01:01:20;;;;;;;46.03;6.60;;;;;;;;;;5022581;28;20033;-52
2021/10/18 01:03:47;;;;;;;37.03;5.45;;;;;;;;;;5024008;28;20060;-52
2021/10/18 01:06:15;;;;;;;33.70;5.35;;;;;;;;;;5022788;28;20120;-58
2021/10/18 01:08:42;;;;;;;37.30;5.68;;;;;;;;;;5036327;28;20074;-56
2021/10/18 01:11:10;;;;;;;39.70;6.40;;;;;;;;;;5027124;28;20419;-47
2021/10/18 01:13:37;;;;;;;33.13;6.10;;;;;;;;;;5017638;28;20489;-51
2021/10/18 01:16:06;;;;;;;30.30;5.30;;;;;;;;;;5022760;28;20032;-54
2021/10/18 01:18:33;;;;;;;32.90;6.47;;;;;;;;;;5021195;28;20056;-53
2021/10/18 01:21:00;;;;;;;37.65;5.70;;;;;;;;;;5024968;28;20048;-56
2021/10/18 01:23:27;;;;;;;25.75;5.05;;;;;;;;;;5022510;28;20021;-46
2021/10/18 01:25:54;;;;;;;33.85;6.13;;;;;;;;;;5017196;28;20033;-55
2021/10/18 01:28:21;;;;;;;41.30;6.65;;;;;;;;;;5016024;28;20040;-52
2021/10/18 01:30:48;;;;;;;48.63;6.13;;;;;;;;;;5028699;28;20386;-51
2021/10/18 01:33:15;;;;;;;38.03;6.03;;;;;;;;;;5016029;28;20022;-50
2021/10/18 01:35:42;;;;;;;36.38;6.60;;;;;;;;;;5023478;28;20029;-54
2021/10/18 01:38:10;;;;;;;34.78;5.20;;;;;;;;;;5014127;28;20049;-47
2021/10/18 01:40:37;;;;;;;35.38;5.28;;;;;;;;;;5021948;28;20017;-55
2021/10/18 01:43:04;;;;;;;36.53;4.97;;;;;;;;;;5018454;28;20473;-62
2021/10/18 01:45:31;;;;;;;32.72;6.00;;;;;;;;;;5016283;28;20092;-52
2021/10/18 01:47:58;;;;;;;33.50;5.40;;;;;;;;;;5018422;28;20112;-47
2021/10/18 01:50:26;;;;;;;38.55;6.07;;;;;;;;;;5180756;22;20058;-48
2021/10/18 01:52:54;;;;;;;25.17;4.68;;;;;;;;;;5012189;28;20053;-50
2021/10/18 01:55:21;;;;;;;33.45;5.95;;;;;;;;;;5019849;28;20026;-48
2021/10/18 01:57:50;;;;;;;29.70;5.00;;;;;;;;;;5025891;28;20488;-54
2021/10/18 02:00:17;;;;;;;26.17;4.90;;;;;;;;;;5013655;28;20393;-56
2021/10/18 02:02:46;;;;;;;28.88;5.43;;;;;;;;;;5024652;28;20021;-49
2021/10/18 02:05:13;;;;;;;31.55;5.03;;;;;;;;;;5025753;28;20104;-53
2021/10/18 02:07:42;;;;;;;28.58;5.07;;;;;;;;;;5029190;28;20090;-49
2021/10/18 02:10:09;;;;;;;27.77;5.20;;;;;;;;;;5029308;28;20396;-55
2021/10/18 02:12:36;;;;;;;25.45;4.85;;;;;;;;;;5027402;28;20104;-49
2021/10/18 02:15:03;;;;;;;24.35;4.82;;;;;;;;;;5029803;28;20060;-54
2021/10/18 02:17:30;;;;;;;23.77;4.63;;;;;;;;;;5024585;28;20036;-51
2021/10/18 02:19:57;;;;;;;28.40;5.15;;;;;;;;;;5011335;28;20024;-53
2021/10/18 02:22:24;;;;;;;22.20;5.53;;;;;;;;;;5009890;28;20113;-52
2021/10/18 02:24:51;;;;;;;27.58;5.30;;;;;;;;;;5014391;28;20026;-50
2021/10/18 02:27:18;;;;;;;27.40;4.65;;;;;;;;;;5017455;28;20017;-48
2021/10/18 02:29:46;;;;;;;31.90;6.45;;;;;;;;;;5050486;28;20032;-49
2021/10/18 02:32:13;;;;;;;23.75;4.13;;;;;;;;;;5050971;28;20090;-58
2021/10/18 02:34:40;;;;;;;18.27;4.38;;;;;;;;;;5051952;28;20028;-52
2021/10/18 02:37:07;;;;;;;26.48;4.82;;;;;;;;;;5051167;28;20033;-55
2021/10/18 02:39:34;;;;;;;28.85;4.35;;;;;;;;;;5050851;28;20023;-55
2021/10/18 02:42:01;;;;;;;25.08;4.15;;;;;;;;;;5050447;28;20033;-53
2021/10/18 02:44:28;;;;;;;19.77;4.03;;;;;;;;;;5051135;28;20031;-55
2021/10/18 02:46:55;;;;;;;17.27;3.55;;;;;;;;;;5051650;28;20492;-56
2021/10/18 02:49:22;;;;;;;29.60;4.93;;;;;;;;;;5050446;28;20036;-57
2021/10/18 02:51:50;;;;;;;19.92;4.43;;;;;;;;;;5050346;28;20069;-54
2021/10/18 02:54:17;;;;;;;22.35;3.65;;;;;;;;;;5050881;28;20032;-54
2021/10/18 02:56:44;;;;;;;29.25;4.10;;;;;;;;;;5051010;28;20033;-54
2021/10/18 02:59:11;;;;;;;19.77;4.72;;;;;;;;;;5213225;22;20057;-54
2021/10/18 03:01:38;;;;;;;23.02;4.75;;;;;;;;;;5006511;28;20065;-55
2021/10/18 03:04:05;;;;;;;18.08;3.92;;;;;;;;;;5012136;28;20026;-54
2021/10/18 03:06:32;;;;;;;19.67;4.15;;;;;;;;;;5011678;28;20045;-54
2021/10/18 03:09:00;;;;;;;17.00;3.78;;;;;;;;;;5012147;28;20033;-53
2021/10/18 03:11:27;;;;;;;17.88;3.63;;;;;;;;;;5011776;28;20389;-53
2021/10/18 03:13:54;;;;;;;19.02;3.53;;;;;;;;;;5011704;28;20041;-47
2021/10/18 03:16:21;;;;;;;15.13;3.78;;;;;;;;;;5009934;28;20057;-48
2021/10/18 03:18:48;;;;;;;17.45;3.53;;;;;;;;;;5011466;28;20149;-49
2021/10/18 03:21:16;;;;;;;17.02;3.40;;;;;;;;;;5010866;28;20079;-51
2021/10/18 03:23:43;;;;;;;16.50;3.22;;;;;;;;;;5011246;28;20022;-52
2021/10/18 03:26:10;;;;;;;16.10;3.80;;;;;;;;;;5011786;28;20350;-49
2021/10/18 03:28:37;;;;;;;17.40;3.15;;;;;;;;;;5011360;28;20033;-53
2021/10/18 03:31:04;;;;;;;16.30;3.35;;;;;;;;;;5011849;28;20030;-49
2021/10/18 03:33:37;;;;;;;15.25;3.65;;;;;;;;;;5005389;28;20022;-51
2021/10/18 03:36:05;;;;;;;15.35;3.50;;;;;;;;;;5008451;28;20018;-47
2021/10/18 03:38:32;;;;;;;15.68;3.42;;;;;;;;;;5010929;28;20088;-48
2021/10/18 03:40:59;;;;;;;13.18;3.13;;;;;;;;;;5011472;28;20030;-51
2021/10/18 03:43:26;;;;;;;13.07;3.13;;;;;;;;;;5011700;28;20034;-46
2021/10/18 03:45:54;;;;;;;12.35;3.22;;;;;;;;;;5010931;28;20022;-53
2021/10/18 03:48:21;;;;;;;15.07;2.88;;;;;;;;;;5011852;28;20045;-50
2021/10/18 03:50:48;;;;;;;10.90;2.83;;;;;;;;;;5011311;28;20455;-50
2021/10/18 03:53:15;;;;;;;13.57;3.13;;;;;;;;;;5011411;28;20480;-52
2021/10/18 03:55:42;;;;;;;13.48;3.08;;;;;;;;;;5011596;28;20021;-52
2021/10/18 03:58:09;;;;;;;19.08;3.38;;;;;;;;;;5015350;28;20420;-52
2021/10/18 04:00:36;;;;;;;19.80;3.15;;;;;;;;;;5013240;28;20076;-60
2021/10/18 04:03:04;;;;;;;14.65;3.03;;;;;;;;;;5014674;28;20026;-53
2021/10/18 04:05:31;;;;;;;15.55;3.10;;;;;;;;;;5014312;28;20036;-49
2021/10/18 04:07:58;;;;;;;10.23;2.72;;;;;;;;;;5014274;28;20057;-47
2021/10/18 04:10:25;;;;;;;11.27;2.47;;;;;;;;;;4997569;28;20038;-49
2021/10/18 04:12:52;;;;;;;12.50;3.15;;;;;;;;;;5014444;28;20369;-52
2021/10/18 04:15:20;;;;;;;12.27;2.53;;;;;;;;;;5015136;28;20065;-53
2021/10/18 04:17:47;;;;;;;12.65;2.92;;;;;;;;;;5014244;28;20030;-49
2021/10/18 04:20:14;;;;;;;14.43;2.80;;;;;;;;;;5014694;28;20405;-53
2021/10/18 04:22:46;;;;;;;8.07;2.63;;;;;;;;;;5015672;28;20421;-45
2021/10/18 04:25:13;;;;;;;11.77;2.57;;;;;;;;;;5014910;28;20440;-47
2021/10/18 04:27:40;;;;;;;11.18;2.47;;;;;;;;;;5014687;28;20267;-52
2021/10/18 04:30:07;;;;;;;14.60;2.50;;;;;;;;;;5014792;28;20026;-51
2021/10/18 04:32:34;;;;;;;14.05;3.25;;;;;;;;;;5015670;28;20022;-48
2021/10/18 04:35:01;;;;;;;7.75;1.90;;;;;;;;;;5015714;28;20390;-54
2021/10/18 04:37:28;;;;;;;13.13;2.63;;;;;;;;;;5014545;28;20389;-50
2021/10/18 04:39:56;;;;;;;9.02;2.45;;;;;;;;;;5015209;28;20381;-54
2021/10/18 04:42:23;;;;;;;9.75;2.25;;;;;;;;;;5015771;28;20376;-54
2021/10/18 04:44:50;;;;;;;12.38;2.50;;;;;;;;;;5015412;28;20025;-49
2021/10/18 04:47:17;;;;;;;10.73;2.00;;;;;;;;;;5014501;28;20388;-50
2021/10/18 04:49:44;;;;;;;14.45;2.88;;;;;;;;;;5015257;28;20421;-53
2021/10/18 04:52:11;;;;;;;8.85;2.30;;;;;;;;;;5014745;28;20349;-53
2021/10/18 04:54:38;;;;;;;7.07;1.95;;;;;;;;;;5014702;28;20643;-53
2021/10/18 04:57:05;;;;;;;7.80;2.05;;;;;;;;;;5015077;28;20380;-53
2021/10/18 04:59:32;;;;;;;10.10;2.47;;;;;;;;;;5014437;28;20401;-48
2021/10/18 05:01:59;;;;;;;8.30;2.05;;;;;;;;;;5014871;28;20026;-48
2021/10/18 05:04:26;;;;;;;7.90;2.33;;;;;;;;;;5014760;28;20163;-48
2021/10/18 05:06:53;;;;;;;7.78;2.35;;;;;;;;;;5013128;28;20128;-56
2021/10/18 05:09:20;;;;;;;6.28;2.10;;;;;;;;;;5011995;28;20104;-47
2021/10/18 05:11:47;;;;;;;6.80;2.17;;;;;;;;;;4997941;28;20025;-46
2021/10/18 05:14:14;;;;;;;7.82;2.42;;;;;;;;;;5013952;28;20489;-46
2021/10/18 05:16:41;;;;;;;10.15;2.08;;;;;;;;;;5013126;28;20065;-48
2021/10/18 05:19:08;;;;;;;7.28;2.00;;;;;;;;;;5014039;28;20421;-45
2021/10/18 05:21:35;;;;;;;4.97;1.70;;;;;;;;;;5013541;28;20449;-48
2021/10/18 05:24:02;;;;;;;9.57;1.95;;;;;;;;;;5013951;28;20382;-48
2021/10/18 05:26:29;;;;;;;5.80;2.00;;;;;;;;;;5013415;28;20214;-47
2021/10/18 05:28:56;;;;;;;9.35;2.15;;;;;;;;;;5013261;28;20382;-46
2021/10/18 05:31:23;;;;;;;6.63;1.60;;;;;;;;;;5013477;28;20453;-46
2021/10/18 05:33:50;;;;;;;6.20;1.70;;;;;;;;;;5013182;28;20493;-51
2021/10/18 05:36:17;;;;;;;5.53;1.70;;;;;;;;;;5013500;28;20370;-52
2021/10/18 05:38:44;;;;;;;11.35;1.85;;;;;;;;;;5012260;28;20079;-49
2021/10/18 05:41:11;;;;;;;6.20;2.10;;;;;;;;;;5013033;28;20555;-49
2021/10/18 05:43:38;;;;;;;6.22;1.70;;;;;;;;;;5012649;28;20473;-54
2021/10/18 05:46:06;;;;;;;6.68;1.45;;;;;;;;;;5013430;28;20473;-53
2021/10/18 05:48:33;;;;;;;5.55;1.92;;;;;;;;;;5012408;28;20484;-49
2021/10/18 05:51:00;;;;;;;6.38;1.52;;;;;;;;;;5013217;28;20112;-52
2021/10/18 05:53:27;;;;;;;7.35;1.92;;;;;;;;;;5012180;28;20030;-51
2021/10/18 05:55:54;;;;;;;7.65;1.73;;;;;;;;;;5013191;28;20465;-51
2021/10/18 05:58:21;;;;;;;8.00;1.40;;;;;;;;;;5012095;28;20510;-52
2021/10/18 06:00:48;;;;;;;5.65;1.90;;;;;;;;;;5012525;28;20489;-49
2021/10/18 06:03:15;;;;;;;3.47;1.40;;;;;;;;;;5011751;28;20476;-52
2021/10/18 06:05:44;;;;;;;4.25;1.48;;;;;;;;;;5013149;28;20026;-57
2021/10/18 06:08:12;;;;;;;4.97;1.55;;;;;;;;;;5012968;28;20101;-47
2021/10/18 06:10:40;;;;;;;3.42;1.60;;;;;;;;;;5012473;28;20113;-46
2021/10/18 06:13:07;;;;;;;5.68;1.55;;;;;;;;;;5012887;28;20098;-47
2021/10/18 06:15:35;;;;;;;5.90;1.60;;;;;;;;;;5012146;28;20172;-48
2021/10/18 06:18:12;;;;;;;4.13;1.35;;;;;;;;;;5012163;28;20025;-51
2021/10/18 06:20:42;;;;;;;3.65;1.45;;;;;;;;;;5012363;28;20030;-46
2021/10/18 06:23:10;;;;;;;5.45;1.60;;;;;;;;;;5012853;28;20029;-47
2021/10/18 06:25:37;;;;;;;3.70;1.25;;;;;;;;;;5012333;28;20049;-53
2021/10/18 06:28:04;;;;;;;4.75;1.45;;;;;;;;;;5012796;28;20032;-55
2021/10/18 06:30:32;;;;;;;5.28;1.50;;;;;;;;;;5011999;28;20481;-53
2021/10/18 06:32:59;;;;;;;4.55;2.00;;;;;;;;;;5012608;28;20029;-47
2021/10/18 06:35:26;;;;;;;6.47;1.50;;;;;;;;;;5011806;28;20021;-45
2021/10/18 06:37:53;;;;;;;4.18;1.58;;;;;;;;;;5012586;28;20038;-48
2021/10/18 06:40:20;;;;;;;5.88;1.42;;;;;;;;;;5011064;28;20078;-47
2021/10/18 06:42:47;;;;;;;4.38;1.20;;;;;;;;;;5012302;28;20108;-45
2021/10/18 06:45:14;;;;;;;5.90;1.30;;;;;;;;;;5011464;28;20033;-61
2021/10/18 06:47:42;;;;;;;5.18;1.60;;;;;;;;;;5011729;28;20032;-48
2021/10/18 06:50:09;;;;;;;3.55;1.38;;;;;;;;;;5011891;28;20030;-47
2021/10/18 06:52:41;;;;;;;4.93;1.52;;;;;;;;;;5011076;28;20025;-48
2021/10/18 06:55:10;;;;;;;6.75;1.58;;;;;;;;;;5011235;28;20030;-54
2021/10/18 06:57:37;;;;;;;4.25;1.85;;;;;;;;;;5010916;28;20370;-48
2021/10/18 07:00:05;;;;;;;5.32;1.50;;;;;;;;;;5010910;28;20060;-50
2021/10/18 07:02:32;;;;;;;4.88;1.27;;;;;;;;;;5010417;28;20119;-46
2021/10/18 07:04:59;;;;;;;3.95;1.50;;;;;;;;;;5011717;28;20037;-50
2021/10/18 07:07:27;;;;;;;3.85;1.48;;;;;;;;;;5011635;28;20470;-47
2021/10/18 07:10:00;;;;;;;4.70;1.40;;;;;;;;;;4993908;28;20026;-48
2021/10/18 07:12:31;;;;;;;4.07;1.20;;;;;;;;;;5011736;28;20026;-49
2021/10/18 07:14:59;;;;;;;4.50;1.45;;;;;;;;;;5011983;28;20105;-48
2021/10/18 07:17:27;;;;;;;5.20;1.10;;;;;;;;;;5011368;28;20030;-47
2021/10/18 07:19:54;;;;;;;4.20;1.20;;;;;;;;;;5011192;28;20485;-53
2021/10/18 07:22:25;;;;;;;6.28;1.60;;;;;;;;;;5011430;28;20125;-51
2021/10/18 07:24:53;;;;;;;3.55;1.48;;;;;;;;;;5010240;28;20049;-49
2021/10/18 07:27:21;;;;;;;5.97;1.48;;;;;;;;;;5011880;28;20022;-46
2021/10/18 07:29:48;;;;;;;2.72;1.02;;;;;;;;;;5012856;28;20026;-45
2021/10/18 07:32:15;;;;;;;3.22;1.00;;;;;;;;;;5015143;28;20032;-48
2021/10/18 07:34:42;;;;;;;4.32;1.30;;;;;;;;;;5015163;28;20033;-48
2021/10/18 07:37:09;;;;;;;3.75;1.17;;;;;;;;;;5015791;28;20041;-47
2021/10/18 07:39:36;;;;;;;4.60;1.30;;;;;;;;;;5014698;28;20053;-49
2021/10/18 07:42:06;;;;;;;3.67;1.20;;;;;;;;;;5015675;28;20033;-47
2021/10/18 07:44:33;;;;;;;5.50;1.10;;;;;;;;;;5014335;28;20022;-53
2021/10/18 07:47:00;;;;;;;4.55;1.40;;;;;;;;;;5014101;28;20477;-54
2021/10/18 07:49:29;;;;;;;2.92;1.30;;;;;;;;;;5014023;28;20418;-53
2021/10/18 07:51:56;;;;;;;5.60;1.25;;;;;;;;;;5014423;28;20022;-46
2021/10/18 07:54:27;;;;;;;3.83;1.25;;;;;;;;;;5013933;28;20057;-48
2021/10/18 07:56:54;;;;;;;3.83;1.02;;;;;;;;;;5015576;28;20032;-48
2021/10/18 07:59:21;;;;;;;2.33;1.00;;;;;;;;;;5013329;28;20042;-48
2021/10/18 08:01:48;;;;;;;3.45;1.10;;;;;;;;;;5014419;28;20022;-48
2021/10/18 08:04:15;;;;;;;3.55;1.30;;;;;;;;;;5014061;28;20198;-47
2021/10/18 08:06:42;;;;;;;2.85;1.20;;;;;;;;;;5014713;28;20025;-48
2021/10/18 08:09:10;;;;;;;3.47;1.10;;;;;;;;;;5013733;28;20253;-52
2021/10/18 08:11:37;;;;;;;4.55;1.35;;;;;;;;;;5014555;28;20051;-50
2021/10/18 08:14:05;;;;;;;3.92;1.10;;;;;;;;;;5014941;28;20029;-52
2021/10/18 08:16:32;;;;;;;4.32;1.20;;;;;;;;;;5014931;28;20026;-64
2021/10/18 08:18:59;;;;;;;1.85;1.00;;;;;;;;;;5015726;28;20042;-49
2021/10/18 08:21:26;;;;;;;2.95;1.00;;;;;;;;;;5015350;28;20504;-51
2021/10/18 08:23:53;;;;;;;6.13;1.20;;;;;;;;;;5015374;28;20433;-50
2021/10/18 08:26:20;;;;;;;2.47;1.00;;;;;;;;;;5015163;28;20050;-46
2021/10/18 08:28:48;;;;;;;3.70;1.10;;;;;;;;;;5015527;28;20018;-54
2021/10/18 08:31:15;;;;;;;2.70;1.10;;;;;;;;;;5013289;28;20124;-46
2021/10/18 08:33:42;;;;;;;4.25;1.08;;;;;;;;;;5014592;28;20105;-51
2021/10/18 08:36:10;;;;;;;4.13;1.20;;;;;;;;;;5015301;28;20076;-48
2021/10/18 08:41:12;;;;;;;2.58;1.02;;;;;;;;;;5013344;28;20439;-50
2021/10/18 08:46:07;;;;;;;3.03;1.30;;;;;;;;;;5014998;28;20389;-45
2021/10/18 08:48:35;;;;;;;5.00;1.38;;;;;;;;;;5014580;28;20376;-48
2021/10/18 08:51:02;;;;;;;4.35;1.25;;;;;;;;;;5014190;28;20163;-49
2021/10/18 08:53:29;;;;;;;3.05;0.90;;;;;;;;;;5014324;28;20418;-46
2021/10/18 08:55:56;;;;;;;3.45;1.02;;;;;;;;;;5014456;28;20100;-47
2021/10/18 08:58:23;;;;;;;3.15;1.10;;;;;;;;;;5014199;28;20068;-47
2021/10/18 09:00:52;;;;;;;4.07;1.00;;;;;;;;;;5014493;28;20469;-49
2021/10/18 09:03:23;;;;;;;2.67;1.33;;;;;;;;;;5014430;28;20034;-53
2021/10/18 09:05:51;;;;;;;4.45;1.05;;;;;;;;;;5013925;28;20022;-50
2021/10/18 09:08:33;;;;;;;2.92;1.00;;;;;;;;;;5014660;28;20116;-46
2021/10/18 09:11:04;;;;;;;1.70;0.90;;;;;;;;;;5014396;28;20030;-49
2021/10/18 09:13:32;;;;;;;4.03;1.25;;;;;;;;;;5013479;28;20406;-50
2021/10/18 09:15:59;;;;;;;2.72;0.95;;;;;;;;;;5013897;28;20109;-48
2021/10/18 09:18:26;;;;;;;1.77;0.80;;;;;;;;;;5014000;28;20030;-48
2021/10/18 09:20:53;;;;;;;3.03;0.60;;;;;;;;;;5013766;28;20552;-47
2021/10/18 09:23:26;;;;;;;1.95;0.75;;;;;;;;;;5013619;28;20432;-48
2021/10/18 09:25:58;;;;;;;2.72;0.93;;;;;;;;;;5013466;28;20029;-52
2021/10/18 09:28:26;;;;;;;2.97;0.80;;;;;;;;;;5013767;28;20093;-47
2021/10/18 09:30:53;;;;;;;4.32;1.05;;;;;;;;;;5013451;28;20022;-47
2021/10/18 09:33:56;;;;;;;2.72;1.00;;;;;;;;;;5012860;28;20080;-46
2021/10/18 09:36:19;;;;;;;;;;;;;;;;;;5012054;28;20038;-53
2021/10/18 09:38:46;;;;;;;3.25;1.00;;;;;;;;;;5013110;28;19913;-48
2021/10/18 09:41:13;;;;;;;4.10;0.80;;;;;;;;;;5012786;28;20355;-47
2021/10/18 10:53:32;;;;;;;4.25;0.50;;;;;;;;;;4995419;28;20034;-47
2021/10/18 10:56:17;;;;;;;4.00;0.95;;;;;;;;;;5005787;28;20039;-47
2021/10/18 10:58:53;;;;;;;5.18;0.90;;;;;;;;;;5001404;28;20039;-46
2021/10/18 11:01:38;;;;;;;6.25;1.25;;;;;;;;;;5002751;28;20038;-49
2021/10/18 11:04:24;;;;;;;4.72;0.70;;;;;;;;;;5002376;28;20105;-46
2021/10/18 11:06:51;;;;;;;7.43;1.30;;;;;;;;;;5007548;28;20022;-51
2021/10/18 11:09:37;;;;;;;4.38;1.00;;;;;;;;;;5009255;28;20034;-46
2021/10/18 11:12:06;;;;;;;4.97;0.90;;;;;;;;;;5000299;28;20034;-49
2021/10/18 11:14:33;;;;;;;4.72;0.88;;;;;;;;;;5012336;28;20054;-47
2021/10/18 11:17:00;;;;;;;1.60;0.70;;;;;;;;;;5012174;28;20498;-48
2021/10/18 11:19:27;;;;;;;5.35;1.38;;;;;;;;;;5012531;28;20058;-47
2021/10/18 11:21:58;;;;;;;3.63;0.82;;;;;;;;;;5012455;28;20029;-47
2021/10/18 11:24:25;;;;;;;8.73;1.20;;;;;;;;;;5012219;28;20109;-50
2021/10/18 11:26:55;;;;;;;1.77;0.70;;;;;;;;;;5012298;28;20466;-50
2021/10/18 11:29:30;;;;;;;3.13;1.52;;;;;;;;;;5012345;28;20489;-47
2021/10/18 11:32:06;;;;;;;4.43;0.90;;;;;;;;;;5012266;28;20026;-46
2021/10/18 11:34:33;;;;;;;4.22;0.80;;;;;;;;;;5012269;28;20036;-47
2021/10/18 11:37:01;;;;;;;3.97;0.70;;;;;;;;;;5010997;28;20025;-48
2021/10/18 11:39:31;;;;;;;5.07;0.77;;;;;;;;;;5011842;28;20034;-46
2021/10/18 11:42:00;;;;;;;4.43;1.00;;;;;;;;;;5011410;28;20100;-47
2021/10/18 11:44:40;;;;;;;7.32;0.82;;;;;;;;;;4991039;28;20034;-46
2021/10/18 11:47:21;;;;;;;20.30;1.30;;;;;;;;;;4993107;28;20167;-63
2021/10/18 11:50:06;;;;;;;9.57;1.27;;;;;;;;;;5001758;28;20026;-49
2021/10/18 11:52:34;;;;;;;12.18;0.90;;;;;;;;;;4991692;28;20122;-53
2021/10/18 11:55:07;;;;;;;4.30;1.20;;;;;;;;;;4990824;28;20030;-49
2021/10/18 11:57:39;;;;;;;6.97;1.35;;;;;;;;;;4991829;28;20045;-50
2021/10/18 12:00:09;;;;;;;6.82;0.98;;;;;;;;;;5006164;28;20038;-56
2021/10/18 12:02:41;;;;;;;5.50;1.20;;;;;;;;;;5011964;28;20076;-52
2021/10/18 12:05:08;;;;;;;7.78;1.05;;;;;;;;;;5009910;28;20367;-55
2021/10/18 12:07:42;;;;;;;7.18;1.10;;;;;;;;;;5010780;28;20389;-52
2021/10/18 12:10:13;;;;;;;2.97;0.90;;;;;;;;;;5011336;28;20116;-56
2021/10/18 12:12:40;;;;;;;2.50;1.00;;;;;;;;;;5010790;28;20025;-54
2021/10/18 12:15:08;;;;;;;7.15;1.20;;;;;;;;;;5010639;28;20026;-56
2021/10/18 12:17:35;;;;;;;8.50;1.20;;;;;;;;;;5011391;28;20122;-58
2021/10/18 12:20:04;;;;;;;5.78;1.20;;;;;;;;;;5014678;28;20026;-50
2021/10/18 12:22:31;;;;;;;7.00;1.30;;;;;;;;;;5015349;28;20513;-51
2021/10/18 12:25:02;;;;;;;14.85;1.42;;;;;;;;;;5014399;28;20332;-53
2021/10/18 12:27:29;;;;;;;12.40;1.20;;;;;;;;;;5001246;28;20026;-48
2021/10/18 12:29:56;;;;;;;9.85;1.25;;;;;;;;;;5007873;28;20029;-51
2021/10/18 12:32:23;;;;;;;12.10;1.55;;;;;;;;;;5015355;28;20371;-49
2021/10/18 12:35:02;;;;;;;10.10;1.50;;;;;;;;;;5008622;28;20388;-45
2021/10/18 12:37:29;;;;;;;17.67;1.80;;;;;;;;;;5012128;28;20484;-53
2021/10/18 12:39:56;;;;;;;14.95;1.30;;;;;;;;;;5012850;28;20374;-54
2021/10/18 12:42:27;;;;;;;19.35;2.20;;;;;;;;;;5013410;28;21000;-56
2021/10/18 12:45:03;;;;;;;12.45;1.58;;;;;;;;;;5013584;28;20109;-52
2021/10/18 12:47:30;;;;;;;13.40;1.48;;;;;;;;;;5013189;28;20444;-54
2021/10/18 12:50:06;;;;;;;7.82;1.00;;;;;;;;;;5012980;28;20055;-56
2021/10/18 12:52:34;;;;;;;12.63;1.27;;;;;;;;;;5013243;28;20030;-55
2021/10/18 12:55:10;;;;;;;12.48;1.60;;;;;;;;;;5014243;28;20022;-47
2021/10/18 12:57:46;;;;;;;13.48;1.38;;;;;;;;;;5011709;28;20038;-55
2021/10/18 13:00:14;;;;;;;15.93;1.40;;;;;;;;;;5012765;28;20096;-48
2021/10/18 13:02:51;;;;;;;16.30;1.60;;;;;;;;;;5013392;28;20022;-59
2021/10/18 13:05:19;;;;;;;11.95;1.58;;;;;;;;;;5010455;28;20389;-58
2021/10/18 13:07:54;;;;;;;9.82;1.42;;;;;;;;;;5008253;28;20022;-51
2021/10/18 13:10:23;;;;;;;18.52;1.60;;;;;;;;;;5013238;28;20087;-57
2021/10/18 13:12:51;;;;;;;21.52;1.80;;;;;;;;;;5011372;28;20018;-57
2021/10/18 13:15:18;;;;;;;29.77;2.03;;;;;;;;;;5012783;28;20025;-52
2021/10/18 13:17:46;;;;;;;28.73;2.08;;;;;;;;;;5012363;28;20040;-57
2021/10/18 13:20:14;;;;;;;21.08;1.85;;;;;;;;;;5014006;28;20034;-61
2021/10/18 13:22:43;;;;;;;20.80;1.88;;;;;;;;;;5012067;28;20032;-54
2021/10/18 13:25:10;;;;;;;26.70;2.00;;;;;;;;;;5012937;28;20029;-48
2021/10/18 13:27:38;;;;;;;12.40;1.52;;;;;;;;;;5012452;28;20064;-59
2021/10/18 13:30:06;;;;;;;11.75;1.60;;;;;;;;;;5012922;28;20018;-54
2021/10/18 13:32:34;;;;;;;10.25;1.38;;;;;;;;;;5011525;28;20026;-55
2021/10/18 13:35:01;;;;;;;17.25;1.58;;;;;;;;;;5012130;28;20030;-60
2021/10/18 13:37:28;;;;;;;14.40;2.67;;;;;;;;;;5010149;28;20472;-57
2021/10/18 13:39:55;;;;;;;15.90;2.42;;;;;;;;;;5011143;28;20385;-59
2021/10/18 13:42:22;;;;;;;24.63;2.30;;;;;;;;;;5012702;28;20417;-60
2021/10/18 13:44:50;;;;;;;12.40;1.38;;;;;;;;;;5011650;28;20381;-59
2021/10/18 13:47:17;;;;;;;30.02;2.17;;;;;;;;;;5007423;28;20426;-60
2021/10/18 13:49:44;;;;;;;14.43;1.80;;;;;;;;;;4999981;28;20512;-52
2021/10/18 13:52:11;;;;;;;16.10;1.77;;;;;;;;;;5002446;28;21435;-54
2021/10/18 13:54:38;;;;;;;21.83;2.10;;;;;;;;;;5000441;28;20625;-68
2021/10/18 13:57:06;;;;;;;12.82;1.50;;;;;;;;;;5001096;28;20025;-59
2021/10/18 13:59:37;;;;;;;21.25;1.67;;;;;;;;;;5001800;28;20506;-57
2021/10/18 14:02:08;;;;;;;16.67;1.75;;;;;;;;;;5003747;28;20049;-63
2021/10/18 14:04:35;;;;;;;16.33;1.98;;;;;;;;;;5001454;28;20022;-58
2021/10/18 14:07:02;;;;;;;14.95;1.42;;;;;;;;;;5006759;28;20524;-61
2021/10/18 14:09:29;;;;;;;24.48;2.33;;;;;;;;;;5000555;28;20392;-60
2021/10/18 14:11:56;;;;;;;27.63;2.20;;;;;;;;;;4992988;28;20410;-52
2021/10/18 14:14:23;;;;;;;19.70;1.92;;;;;;;;;;5005274;28;20109;-53
2021/10/18 14:16:50;;;;;;;18.38;1.95;;;;;;;;;;5005557;28;20049;-54
2021/10/18 14:19:17;;;;;;;22.52;2.10;;;;;;;;;;5001298;28;20041;-56
2021/10/18 14:21:44;;;;;;;23.60;2.20;;;;;;;;;;5011292;28;20052;-60
2021/10/18 14:24:11;;;;;;;12.00;2.13;;;;;;;;;;5011735;28;20079;-58
2021/10/18 14:26:39;;;;;;;18.15;1.65;;;;;;;;;;5009687;28;20083;-57
2021/10/18 14:29:07;;;;;;;19.95;1.70;;;;;;;;;;5010981;28;20633;-57
2021/10/18 14:31:35;;;;;;;22.38;2.15;;;;;;;;;;5011767;28;20030;-56
2021/10/18 14:34:02;;;;;;;20.15;1.90;;;;;;;;;;5011910;28;20100;-59
2021/10/18 14:36:30;;;;;;;17.15;2.33;;;;;;;;;;5012312;28;20036;-56
2021/10/18 14:38:57;;;;;;;12.85;2.08;;;;;;;;;;5008674;28;20497;-53
2021/10/18 14:41:26;;;;;;;14.73;2.05;;;;;;;;;;5011188;28;20030;-55
2021/10/18 14:43:54;;;;;;;20.05;2.03;;;;;;;;;;5011607;28;20076;-55
2021/10/18 14:46:26;;;;;;;18.10;2.13;;;;;;;;;;5011334;28;20080;-60
2021/10/18 14:48:54;;;;;;;19.33;2.58;;;;;;;;;;5009594;28;20023;-59
2021/10/18 14:51:25;;;;;;;18.67;2.15;;;;;;;;;;5011779;28;20030;-52
2021/10/18 14:53:55;;;;;;;23.90;2.03;;;;;;;;;;5010375;28;20382;-54
2021/10/18 14:56:23;;;;;;;26.30;2.70;;;;;;;;;;5011161;28;20029;-64
2021/10/18 14:58:50;;;;;;;25.90;2.13;;;;;;;;;;5009080;28;20045;-57
2021/10/18 15:01:20;;;;;;;17.20;2.40;;;;;;;;;;5011045;28;20049;-56
2021/10/18 15:03:47;;;;;;;17.20;2.17;;;;;;;;;;5007689;28;20030;-51
2021/10/18 15:06:14;;;;;;;21.17;2.15;;;;;;;;;;5010178;28;20022;-56
2021/10/18 15:08:41;;;;;;;28.48;2.60;;;;;;;;;;5010664;28;20026;-57
2021/10/18 15:11:08;;;;;;;21.30;2.38;;;;;;;;;;5006204;28;20019;-54
2021/10/18 15:13:37;;;;;;;18.65;2.60;;;;;;;;;;4997037;28;20049;-53
2021/10/18 15:16:04;;;;;;;25.33;2.65;;;;;;;;;;5011279;28;20014;-55
2021/10/18 15:18:31;;;;;;;15.13;2.35;;;;;;;;;;5010613;28;20165;-56
2021/10/18 15:20:58;;;;;;;31.75;2.60;;;;;;;;;;5007705;28;20134;-59
2021/10/18 15:23:26;;;;;;;31.98;3.17;;;;;;;;;;5011360;28;20107;-63
2021/10/18 15:25:53;;;;;;;25.08;2.60;;;;;;;;;;5009994;28;20474;-56
2021/10/18 15:28:20;;;;;;;26.25;2.92;;;;;;;;;;5011247;28;20378;-60
2021/10/18 15:30:47;;;;;;;18.30;2.67;;;;;;;;;;5009774;28;20061;-61
2021/10/18 15:33:15;;;;;;;19.98;2.42;;;;;;;;;;5009832;28;20029;-61
2021/10/18 15:35:42;;;;;;;16.55;2.55;;;;;;;;;;5010744;28;20080;-63
2021/10/18 15:38:09;;;;;;;22.15;3.30;;;;;;;;;;5010357;28;20066;-63
2021/10/18 15:40:36;;;;;;;20.17;3.38;;;;;;;;;;5009917;28;20026;-60
2021/10/18 15:43:03;;;;;;;27.05;3.70;;;;;;;;;;5008441;28;20068;-58
2021/10/18 15:45:31;;;;;;;28.17;3.92;;;;;;;;;;5010524;28;20531;-59
2021/10/18 15:48:02;;;;;;;32.10;3.95;;;;;;;;;;5010398;28;20033;-62
2021/10/18 15:50:29;;;;;;;35.75;4.05;;;;;;;;;;5009450;28;20080;-60
2021/10/18 15:52:57;;;;;;;29.38;3.85;;;;;;;;;;5013916;28;20112;-56
2021/10/18 15:55:24;;;;;;;31.33;4.05;;;;;;;;;;5014051;28;20018;-61
2021/10/18 15:57:51;;;;;;;19.05;3.50;;;;;;;;;;5013913;28;20042;-58
2021/10/18 16:00:18;;;;;;;17.13;3.53;;;;;;;;;;5014188;28;20069;-57